sensor_id;sensor_type;location;lat;lon;timestamp;pressure;altitude;pressure_sealevel;temperature
48362;BMP280;34510;51.888;5.670;2023-04-24T00:03:26;99813.72;;;11.79
48362;BMP280;34510;51.888;5.670;2023-04-24T00:08:29;99801.66;;;11.66
48362;BMP280;34510;51.888;5.670;2023-04-24T00:13:32;99807.56;;;11.70
48362;BMP280;34510;51.888;5.670;2023-04-24T00:18:34;99815.47;;;11.73
48362;BMP280;34510;51.888;5.670;2023-04-24T00:23:35;99823.75;;;11.80
48362;BMP280;34510;51.888;5.670;2023-04-24T00:28:38;99830.59;;;11.77
48362;BMP280;34510;51.888;5.670;2023-04-24T00:33:40;99829.28;;;11.80
48362;BMP280;34510;51.888;5.670;2023-04-24T00:38:43;99824.72;;;11.85
48362;BMP280;34510;51.888;5.670;2023-04-24T00:43:45;99833.47;;;12.00
48362;BMP280;34510;51.888;5.670;2023-04-24T00:48:50;99821.09;;;11.85
48362;BMP280;34510;51.888;5.670;2023-04-24T00:53:52;99815.53;;;11.85
48362;BMP280;34510;51.888;5.670;2023-04-24T00:58:54;99833.16;;;11.79
48362;BMP280;34510;51.888;5.670;2023-04-24T01:04:00;99830.19;;;11.92
48362;BMP280;34510;51.888;5.670;2023-04-24T01:09:03;99849.03;;;11.90
48362;BMP280;34510;51.888;5.670;2023-04-24T01:14:06;99839.75;;;11.96
48362;BMP280;34510;51.888;5.670;2023-04-24T01:19:10;99837.50;;;12.16
48362;BMP280;34510;51.888;5.670;2023-04-24T01:24:13;99830.84;;;12.05
48362;BMP280;34510;51.888;5.670;2023-04-24T01:29:15;99831.50;;;11.89
48362;BMP280;34510;51.888;5.670;2023-04-24T01:34:19;99827.13;;;12.23
48362;BMP280;34510;51.888;5.670;2023-04-24T01:39:21;99830.97;;;12.11
48362;BMP280;34510;51.888;5.670;2023-04-24T01:44:26;99836.28;;;12.12
48362;BMP280;34510;51.888;5.670;2023-04-24T01:49:29;99828.53;;;12.02
48362;BMP280;34510;51.888;5.670;2023-04-24T01:54:32;99832.66;;;12.12
48362;BMP280;34510;51.888;5.670;2023-04-24T01:59:37;99825.78;;;12.14
48362;BMP280;34510;51.888;5.670;2023-04-24T02:04:39;99821.31;;;12.13
48362;BMP280;34510;51.888;5.670;2023-04-24T02:09:49;99837.13;;;12.13
48362;BMP280;34510;51.888;5.670;2023-04-24T02:14:52;99841.97;;;12.17
48362;BMP280;34510;51.888;5.670;2023-04-24T02:19:53;99841.59;;;12.14
48362;BMP280;34510;51.888;5.670;2023-04-24T02:24:59;99842.34;;;12.21
48362;BMP280;34510;51.888;5.670;2023-04-24T02:30:05;99846.78;;;12.10
48362;BMP280;34510;51.888;5.670;2023-04-24T02:35:07;99833.44;;;11.89
48362;BMP280;34510;51.888;5.670;2023-04-24T02:40:11;99823.38;;;11.69
48362;BMP280;34510;51.888;5.670;2023-04-24T02:45:17;99815.69;;;11.90
48362;BMP280;34510;51.888;5.670;2023-04-24T02:50:19;99822.13;;;12.02
48362;BMP280;34510;51.888;5.670;2023-04-24T02:55:21;99823.75;;;11.80
48362;BMP280;34510;51.888;5.670;2023-04-24T03:00:26;99823.41;;;11.88
48362;BMP280;34510;51.888;5.670;2023-04-24T03:05:28;99817.09;;;11.81
48362;BMP280;34510;51.888;5.670;2023-04-24T03:10:30;99816.94;;;11.75
48362;BMP280;34510;51.888;5.670;2023-04-24T03:15:33;99814.91;;;11.64
48362;BMP280;34510;51.888;5.670;2023-04-24T03:20:36;99816.78;;;11.89
48362;BMP280;34510;51.888;5.670;2023-04-24T03:25:42;99813.69;;;11.60
48362;BMP280;34510;51.888;5.670;2023-04-24T03:30:46;99820.94;;;11.61
48362;BMP280;34510;51.888;5.670;2023-04-24T03:35:50;99836.84;;;11.54
48362;BMP280;34510;51.888;5.670;2023-04-24T03:40:52;99836.38;;;11.57
48362;BMP280;34510;51.888;5.670;2023-04-24T03:46:12;99844.78;;;11.51
48362;BMP280;34510;51.888;5.670;2023-04-24T03:51:20;99830.50;;;11.65
48362;BMP280;34510;51.888;5.670;2023-04-24T03:56:24;99840.63;;;11.41
48362;BMP280;34510;51.888;5.670;2023-04-24T04:01:27;99847.19;;;11.29
48362;BMP280;34510;51.888;5.670;2023-04-24T04:06:42;99840.78;;;11.28
48362;BMP280;34510;51.888;5.670;2023-04-24T04:11:46;99839.94;;;11.28
48362;BMP280;34510;51.888;5.670;2023-04-24T04:16:48;99846.03;;;11.36
48362;BMP280;34510;51.888;5.670;2023-04-24T04:21:51;99841.94;;;11.21
48362;BMP280;34510;51.888;5.670;2023-04-24T04:27:17;99842.41;;;11.18
48362;BMP280;34510;51.888;5.670;2023-04-24T04:32:27;99838.78;;;11.17
48362;BMP280;34510;51.888;5.670;2023-04-24T04:37:31;99840.72;;;11.17
48362;BMP280;34510;51.888;5.670;2023-04-24T04:42:42;99840.25;;;11.20
48362;BMP280;34510;51.888;5.670;2023-04-24T04:47:49;99843.84;;;11.02
48362;BMP280;34510;51.888;5.670;2023-04-24T04:52:53;99853.66;;;11.23
48362;BMP280;34510;51.888;5.670;2023-04-24T04:58:02;99860.44;;;11.08
48362;BMP280;34510;51.888;5.670;2023-04-24T05:03:05;99865.75;;;11.10
48362;BMP280;34510;51.888;5.670;2023-04-24T05:08:24;99867.38;;;11.36
48362;BMP280;34510;51.888;5.670;2023-04-24T05:13:30;99880.56;;;11.59
48362;BMP280;34510;51.888;5.670;2023-04-24T05:19:02;99888.84;;;11.84
48362;BMP280;34510;51.888;5.670;2023-04-24T05:24:09;99889.13;;;11.75
48362;BMP280;34510;51.888;5.670;2023-04-24T05:29:25;99894.41;;;11.84
48362;BMP280;34510;51.888;5.670;2023-04-24T05:34:28;99898.91;;;11.60
48362;BMP280;34510;51.888;5.670;2023-04-24T05:39:32;99914.50;;;11.61
48362;BMP280;34510;51.888;5.670;2023-04-24T05:44:34;99930.00;;;11.68
48362;BMP280;34510;51.888;5.670;2023-04-24T05:49:36;99941.00;;;11.82
48362;BMP280;34510;51.888;5.670;2023-04-24T05:54:38;99944.69;;;11.94
48362;BMP280;34510;51.888;5.670;2023-04-24T05:59:40;99939.34;;;12.11
48362;BMP280;34510;51.888;5.670;2023-04-24T06:04:44;99955.16;;;12.10
48362;BMP280;34510;51.888;5.670;2023-04-24T06:09:47;99971.94;;;11.42
48362;BMP280;34510;51.888;5.670;2023-04-24T06:14:50;99975.34;;;11.87
48362;BMP280;34510;51.888;5.670;2023-04-24T06:20:23;99977.13;;;11.82
48362;BMP280;34510;51.888;5.670;2023-04-24T06:25:34;99974.41;;;11.50
48362;BMP280;34510;51.888;5.670;2023-04-24T06:30:36;99983.88;;;11.24
48362;BMP280;34510;51.888;5.670;2023-04-24T06:35:39;99990.84;;;11.52
48362;BMP280;34510;51.888;5.670;2023-04-24T06:40:43;99999.94;;;11.16
48362;BMP280;34510;51.888;5.670;2023-04-24T06:45:45;100009.63;;;11.31
48362;BMP280;34510;51.888;5.670;2023-04-24T06:50:52;100002.38;;;11.30
48362;BMP280;34510;51.888;5.670;2023-04-24T06:55:55;100035.50;;;11.50
48362;BMP280;34510;51.888;5.670;2023-04-24T07:01:00;100053.09;;;11.62
48362;BMP280;34510;51.888;5.670;2023-04-24T07:06:02;100057.38;;;11.40
48362;BMP280;34510;51.888;5.670;2023-04-24T07:11:05;100057.59;;;11.14
48362;BMP280;34510;51.888;5.670;2023-04-24T07:16:09;100067.56;;;11.46
48362;BMP280;34510;51.888;5.670;2023-04-24T07:21:12;100076.41;;;11.05
48362;BMP280;34510;51.888;5.670;2023-04-24T07:26:15;100076.84;;;11.08
48362;BMP280;34510;51.888;5.670;2023-04-24T07:31:16;100100.97;;;11.01
48362;BMP280;34510;51.888;5.670;2023-04-24T07:36:19;100111.78;;;11.16
48362;BMP280;34510;51.888;5.670;2023-04-24T07:41:22;100127.28;;;10.92
48362;BMP280;34510;51.888;5.670;2023-04-24T07:46:29;100155.59;;;10.63
48362;BMP280;34510;51.888;5.670;2023-04-24T07:51:32;100092.56;;;10.45
48362;BMP280;34510;51.888;5.670;2023-04-24T07:56:40;100156.88;;;10.67
48362;BMP280;34510;51.888;5.670;2023-04-24T08:01:44;100186.47;;;10.73
48362;BMP280;34510;51.888;5.670;2023-04-24T08:06:47;100204.53;;;10.89
48362;BMP280;34510;51.888;5.670;2023-04-24T08:11:49;100233.06;;;10.44
48362;BMP280;34510;51.888;5.670;2023-04-24T08:16:54;100234.81;;;10.97
48362;BMP280;34510;51.888;5.670;2023-04-24T08:21:57;100246.03;;;10.64
48362;BMP280;34510;51.888;5.670;2023-04-24T08:26:59;100260.97;;;10.63
48362;BMP280;34510;51.888;5.670;2023-04-24T08:32:02;100269.19;;;10.89
48362;BMP280;34510;51.888;5.670;2023-04-24T08:37:05;100282.72;;;10.66
48362;BMP280;34510;51.888;5.670;2023-04-24T08:42:11;100294.88;;;10.65
48362;BMP280;34510;51.888;5.670;2023-04-24T08:47:14;100301.44;;;10.84
48362;BMP280;34510;51.888;5.670;2023-04-24T08:52:18;100317.38;;;11.01
48362;BMP280;34510;51.888;5.670;2023-04-24T08:57:21;100332.97;;;11.02
48362;BMP280;34510;51.888;5.670;2023-04-24T09:02:24;100360.94;;;10.94
48362;BMP280;34510;51.888;5.670;2023-04-24T09:07:32;100391.41;;;11.21
48362;BMP280;34510;51.888;5.670;2023-04-24T09:12:38;100415.19;;;11.61
48362;BMP280;34510;51.888;5.670;2023-04-24T09:17:42;100432.41;;;11.19
48362;BMP280;34510;51.888;5.670;2023-04-24T09:22:45;100442.44;;;11.20
48362;BMP280;34510;51.888;5.670;2023-04-24T09:27:47;100464.78;;;11.51
48362;BMP280;34510;51.888;5.670;2023-04-24T09:32:49;100474.56;;;11.73
48362;BMP280;34510;51.888;5.670;2023-04-24T09:37:57;100477.34;;;11.73
48362;BMP280;34510;51.888;5.670;2023-04-24T09:42:59;100493.78;;;11.88
48362;BMP280;34510;51.888;5.670;2023-04-24T09:48:08;100501.97;;;12.21
48362;BMP280;34510;51.888;5.670;2023-04-24T09:53:11;100514.28;;;12.38
48362;BMP280;34510;51.888;5.670;2023-04-24T09:58:14;100524.97;;;12.73
48362;BMP280;34510;51.888;5.670;2023-04-24T10:03:17;100524.25;;;13.16
48362;BMP280;34510;51.888;5.670;2023-04-24T10:08:20;100536.38;;;12.96
48362;BMP280;34510;51.888;5.670;2023-04-24T10:13:22;100538.53;;;12.94
48362;BMP280;34510;51.888;5.670;2023-04-24T10:18:27;100538.91;;;13.05
48362;BMP280;34510;51.888;5.670;2023-04-24T10:23:29;100546.22;;;12.23
48362;BMP280;34510;51.888;5.670;2023-04-24T10:28:33;100560.88;;;12.81
48362;BMP280;34510;51.888;5.670;2023-04-24T10:33:36;100572.47;;;12.78
48362;BMP280;34510;51.888;5.670;2023-04-24T10:38:39;100571.75;;;12.51
48362;BMP280;34510;51.888;5.670;2023-04-24T10:43:43;100583.72;;;12.00
48362;BMP280;34510;51.888;5.670;2023-04-24T10:48:53;100595.94;;;12.89
48362;BMP280;34510;51.888;5.670;2023-04-24T10:54:34;100595.16;;;12.30
48362;BMP280;34510;51.888;5.670;2023-04-24T10:59:36;100607.53;;;12.34
48362;BMP280;34510;51.888;5.670;2023-04-24T11:04:50;100600.06;;;12.35
48362;BMP280;34510;51.888;5.670;2023-04-24T11:09:58;100620.03;;;12.12
48362;BMP280;34510;51.888;5.670;2023-04-24T11:15:03;100618.28;;;12.24
48362;BMP280;34510;51.888;5.670;2023-04-24T11:20:10;100625.84;;;11.91
48362;BMP280;34510;51.888;5.670;2023-04-24T11:25:30;100640.41;;;11.86
48362;BMP280;34510;51.888;5.670;2023-04-24T11:30:36;100641.75;;;12.35
48362;BMP280;34510;51.888;5.670;2023-04-24T11:35:55;100654.28;;;12.64
48362;BMP280;34510;51.888;5.670;2023-04-24T11:40:59;100662.50;;;12.46
48362;BMP280;34510;51.888;5.670;2023-04-24T11:46:16;100646.78;;;13.72
48362;BMP280;34510;51.888;5.670;2023-04-24T11:51:18;100659.13;;;13.83
48362;BMP280;34510;51.888;5.670;2023-04-24T11:56:24;100662.19;;;13.75
48362;BMP280;34510;51.888;5.670;2023-04-24T12:01:27;100663.94;;;12.99
48362;BMP280;34510;51.888;5.670;2023-04-24T12:06:29;100668.56;;;12.81
48362;BMP280;34510;51.888;5.670;2023-04-24T12:11:32;100686.06;;;12.36
48362;BMP280;34510;51.888;5.670;2023-04-24T12:16:35;100704.66;;;12.29
48362;BMP280;34510;51.888;5.670;2023-04-24T12:21:37;100701.53;;;11.93
48362;BMP280;34510;51.888;5.670;2023-04-24T12:26:43;100710.00;;;11.58
48362;BMP280;34510;51.888;5.670;2023-04-24T12:31:48;100713.81;;;11.31
48362;BMP280;34510;51.888;5.670;2023-04-24T12:36:50;100716.13;;;11.07
48362;BMP280;34510;51.888;5.670;2023-04-24T12:41:56;100732.16;;;11.19
48362;BMP280;34510;51.888;5.670;2023-04-24T12:46:58;100736.91;;;11.38
48362;BMP280;34510;51.888;5.670;2023-04-24T12:52:01;100744.63;;;11.56
48362;BMP280;34510;51.888;5.670;2023-04-24T12:57:07;100736.13;;;11.70
48362;BMP280;34510;51.888;5.670;2023-04-24T13:02:11;100745.47;;;11.56
48362;BMP280;34510;51.888;5.670;2023-04-24T13:07:13;100748.75;;;11.86
48362;BMP280;34510;51.888;5.670;2023-04-24T13:12:20;100752.59;;;12.12
48362;BMP280;34510;51.888;5.670;2023-04-24T13:17:22;100750.16;;;12.68
48362;BMP280;34510;51.888;5.670;2023-04-24T13:22:24;100755.34;;;12.31
48362;BMP280;34510;51.888;5.670;2023-04-24T13:27:28;100759.53;;;12.74
48362;BMP280;34510;51.888;5.670;2023-04-24T13:32:30;100762.59;;;12.52
48362;BMP280;34510;51.888;5.670;2023-04-24T13:37:33;100772.38;;;12.75
48362;BMP280;34510;51.888;5.670;2023-04-24T13:42:35;100790.84;;;12.29
48362;BMP280;34510;51.888;5.670;2023-04-24T13:47:37;100779.22;;;11.60
48362;BMP280;34510;51.888;5.670;2023-04-24T13:52:40;100781.22;;;12.25
48362;BMP280;34510;51.888;5.670;2023-04-24T13:57:49;100781.28;;;13.10
48362;BMP280;34510;51.888;5.670;2023-04-24T14:02:51;100775.91;;;13.08
48362;BMP280;34510;51.888;5.670;2023-04-24T14:07:53;100774.47;;;12.92
48362;BMP280;34510;51.888;5.670;2023-04-24T14:12:55;100781.13;;;13.43
48362;BMP280;34510;51.888;5.670;2023-04-24T14:17:57;100781.28;;;13.54
48362;BMP280;34510;51.888;5.670;2023-04-24T14:23:01;100783.41;;;13.08
48362;BMP280;34510;51.888;5.670;2023-04-24T14:28:03;100785.78;;;13.04
48362;BMP280;34510;51.888;5.670;2023-04-24T14:33:05;100777.53;;;12.71
48362;BMP280;34510;51.888;5.670;2023-04-24T14:38:10;100783.84;;;12.98
48362;BMP280;34510;51.888;5.670;2023-04-24T14:43:12;100775.91;;;13.91
48362;BMP280;34510;51.888;5.670;2023-04-24T14:48:14;100784.63;;;13.70
48362;BMP280;34510;51.888;5.670;2023-04-24T14:53:21;100798.41;;;13.07
48362;BMP280;34510;51.888;5.670;2023-04-24T14:58:23;100801.19;;;13.07
48362;BMP280;34510;51.888;5.670;2023-04-24T15:03:26;100804.91;;;12.74
48362;BMP280;34510;51.888;5.670;2023-04-24T15:08:29;100808.28;;;13.02
48362;BMP280;34510;51.888;5.670;2023-04-24T15:13:32;100804.50;;;13.80
48362;BMP280;34510;51.888;5.670;2023-04-24T15:18:35;100808.50;;;13.52
48362;BMP280;34510;51.888;5.670;2023-04-24T15:23:37;100799.19;;;13.65
48362;BMP280;34510;51.888;5.670;2023-04-24T15:28:39;100816.81;;;13.21
48362;BMP280;34510;51.888;5.670;2023-04-24T15:33:41;100830.84;;;12.55
48362;BMP280;34510;51.888;5.670;2023-04-24T15:38:44;100839.16;;;11.82
48362;BMP280;34510;51.888;5.670;2023-04-24T15:43:47;100845.38;;;11.91
48362;BMP280;34510;51.888;5.670;2023-04-24T15:48:50;100849.91;;;12.58
48362;BMP280;34510;51.888;5.670;2023-04-24T15:53:53;100832.28;;;12.84
48362;BMP280;34510;51.888;5.670;2023-04-24T15:58:55;100841.75;;;12.17
48362;BMP280;34510;51.888;5.670;2023-04-24T16:03:57;100844.94;;;12.73
48362;BMP280;34510;51.888;5.670;2023-04-24T16:09:00;100844.75;;;12.35
48362;BMP280;34510;51.888;5.670;2023-04-24T16:14:04;100845.84;;;12.54
48362;BMP280;34510;51.888;5.670;2023-04-24T16:19:10;100841.75;;;12.56
48362;BMP280;34510;51.888;5.670;2023-04-24T16:24:12;100850.78;;;12.38
48362;BMP280;34510;51.888;5.670;2023-04-24T16:29:15;100845.63;;;12.55
48362;BMP280;34510;51.888;5.670;2023-04-24T16:34:19;100853.72;;;12.24
48362;BMP280;34510;51.888;5.670;2023-04-24T16:39:21;100853.34;;;11.53
48362;BMP280;34510;51.888;5.670;2023-04-24T16:44:23;100867.00;;;12.15
48362;BMP280;34510;51.888;5.670;2023-04-24T16:49:25;100867.81;;;11.83
48362;BMP280;34510;51.888;5.670;2023-04-24T16:54:31;100857.16;;;12.19
48362;BMP280;34510;51.888;5.670;2023-04-24T16:59:39;100865.69;;;12.04
48362;BMP280;34510;51.888;5.670;2023-04-24T17:04:42;100874.50;;;12.48
48362;BMP280;34510;51.888;5.670;2023-04-24T17:09:44;100877.47;;;12.20
48362;BMP280;34510;51.888;5.670;2023-04-24T17:14:46;100876.63;;;12.32
48362;BMP280;34510;51.888;5.670;2023-04-24T17:19:50;100876.63;;;12.32
48362;BMP280;34510;51.888;5.670;2023-04-24T17:24:55;100884.53;;;12.22
48362;BMP280;34510;51.888;5.670;2023-04-24T17:29:57;100878.94;;;11.89
48362;BMP280;34510;51.888;5.670;2023-04-24T17:35:01;100895.84;;;11.47
48362;BMP280;34510;51.888;5.670;2023-04-24T17:40:04;100893.88;;;11.40
48362;BMP280;34510;51.888;5.670;2023-04-24T17:45:06;100891.13;;;11.47
48362;BMP280;34510;51.888;5.670;2023-04-24T17:50:11;100892.56;;;11.30
48362;BMP280;34510;51.888;5.670;2023-04-24T17:55:13;100902.31;;;11.13
48362;BMP280;34510;51.888;5.670;2023-04-24T18:00:16;100903.13;;;11.06
48362;BMP280;34510;51.888;5.670;2023-04-24T18:05:19;100904.06;;;10.92
48362;BMP280;34510;51.888;5.670;2023-04-24T18:10:24;100913.50;;;11.32
48362;BMP280;34510;51.888;5.670;2023-04-24T18:15:27;100917.50;;;11.23
48362;BMP280;34510;51.888;5.670;2023-04-24T18:20:29;100920.63;;;10.79
48362;BMP280;34510;51.888;5.670;2023-04-24T18:25:31;100917.69;;;10.87
48362;BMP280;34510;51.888;5.670;2023-04-24T18:30:33;100918.00;;;10.71
48362;BMP280;34510;51.888;5.670;2023-04-24T18:35:38;100915.25;;;10.71
48362;BMP280;34510;51.888;5.670;2023-04-24T18:40:43;100923.50;;;10.64
48362;BMP280;34510;51.888;5.670;2023-04-24T18:45:46;100924.97;;;10.60
48362;BMP280;34510;51.888;5.670;2023-04-24T18:50:48;100932.38;;;10.53
48362;BMP280;34510;51.888;5.670;2023-04-24T18:55:50;100931.38;;;10.61
48362;BMP280;34510;51.888;5.670;2023-04-24T19:00:52;100938.59;;;10.83
48362;BMP280;34510;51.888;5.670;2023-04-24T19:05:54;100942.78;;;10.72
48362;BMP280;34510;51.888;5.670;2023-04-24T19:10:56;100948.63;;;10.84
48362;BMP280;34510;51.888;5.670;2023-04-24T19:16:02;100962.38;;;10.71
48362;BMP280;34510;51.888;5.670;2023-04-24T19:21:04;100956.34;;;10.61
48362;BMP280;34510;51.888;5.670;2023-04-24T19:26:06;100963.22;;;10.43
48362;BMP280;34510;51.888;5.670;2023-04-24T19:31:08;100973.91;;;10.46
48362;BMP280;34510;51.888;5.670;2023-04-24T19:36:10;100977.72;;;10.24
48362;BMP280;34510;51.888;5.670;2023-04-24T19:41:13;100978.88;;;10.15
48362;BMP280;34510;51.888;5.670;2023-04-24T19:46:15;100968.75;;;10.07
48362;BMP280;34510;51.888;5.670;2023-04-24T19:51:17;100977.97;;;10.29
48362;BMP280;34510;51.888;5.670;2023-04-24T19:56:43;100982.41;;;10.24
48362;BMP280;34510;51.888;5.670;2023-04-24T20:01:46;100981.16;;;10.26
48362;BMP280;34510;51.888;5.670;2023-04-24T20:06:50;100990.59;;;9.96
48362;BMP280;34510;51.888;5.670;2023-04-24T20:11:53;100980.63;;;10.01
48362;BMP280;34510;51.888;5.670;2023-04-24T20:16:56;100977.38;;;9.76
48362;BMP280;34510;51.888;5.670;2023-04-24T20:21:58;100977.91;;;9.72
48362;BMP280;34510;51.888;5.670;2023-04-24T20:27:19;100978.41;;;9.61
48362;BMP280;34510;51.888;5.670;2023-04-24T20:32:21;100978.81;;;9.58
48362;BMP280;34510;51.888;5.670;2023-04-24T20:37:23;100976.88;;;9.58
48362;BMP280;34510;51.888;5.670;2023-04-24T20:42:26;100974.00;;;9.66
48362;BMP280;34510;51.888;5.670;2023-04-24T20:47:28;100978.22;;;9.62
48362;BMP280;34510;51.888;5.670;2023-04-24T20:52:33;100980.84;;;9.34
48362;BMP280;34510;51.888;5.670;2023-04-24T20:57:36;100973.19;;;9.36
48362;BMP280;34510;51.888;5.670;2023-04-24T21:02:38;100977.59;;;9.31
48362;BMP280;34510;51.888;5.670;2023-04-24T21:07:42;100972.44;;;9.28
48362;BMP280;34510;51.888;5.670;2023-04-24T21:12:44;100980.63;;;9.36
48362;BMP280;34510;51.888;5.670;2023-04-24T21:17:49;100979.41;;;9.24
48362;BMP280;34510;51.888;5.670;2023-04-24T21:22:51;100972.16;;;9.23
48362;BMP280;34510;51.888;5.670;2023-04-24T21:27:53;100985.78;;;9.24
48362;BMP280;34510;51.888;5.670;2023-04-24T21:32:56;100975.97;;;9.36
48362;BMP280;34510;51.888;5.670;2023-04-24T21:38:11;100969.00;;;9.40
48362;BMP280;34510;51.888;5.670;2023-04-24T21:43:14;100971.63;;;9.63
48362;BMP280;34510;51.888;5.670;2023-04-24T21:48:28;100972.34;;;9.36
48362;BMP280;34510;51.888;5.670;2023-04-24T21:53:29;100964.09;;;9.57
48362;BMP280;34510;51.888;5.670;2023-04-24T21:58:33;100969.06;;;9.47
48362;BMP280;34510;51.888;5.670;2023-04-24T22:03:36;100980.84;;;9.34
48362;BMP280;34510;51.888;5.670;2023-04-24T22:08:39;100972.03;;;9.45
48362;BMP280;34510;51.888;5.670;2023-04-24T22:13:51;100981.13;;;9.25
48362;BMP280;34510;51.888;5.670;2023-04-24T22:18:53;100988.28;;;9.34
48362;BMP280;34510;51.888;5.670;2023-04-24T22:23:57;100987.50;;;9.25
48362;BMP280;34510;51.888;5.670;2023-04-24T22:28:59;100979.22;;;9.10
48362;BMP280;34510;51.888;5.670;2023-04-24T22:34:01;100989.03;;;9.13
48362;BMP280;34510;51.888;5.670;2023-04-24T22:39:04;100993.28;;;9.01
48362;BMP280;34510;51.888;5.670;2023-04-24T22:44:09;100993.72;;;9.12
48362;BMP280;34510;51.888;5.670;2023-04-24T22:49:12;100986.31;;;8.90
48362;BMP280;34510;51.888;5.670;2023-04-24T22:54:18;100977.06;;;8.98
48362;BMP280;34510;51.888;5.670;2023-04-24T22:59:20;100976.00;;;8.84
48362;BMP280;34510;51.888;5.670;2023-04-24T23:04:26;100984.31;;;8.84
48362;BMP280;34510;51.888;5.670;2023-04-24T23:09:32;100983.75;;;8.88
48362;BMP280;34510;51.888;5.670;2023-04-24T23:14:34;100988.69;;;8.93
48362;BMP280;34510;51.888;5.670;2023-04-24T23:19:37;100971.91;;;8.80
48362;BMP280;34510;51.888;5.670;2023-04-24T23:24:38;100959.50;;;8.76
48362;BMP280;34510;51.888;5.670;2023-04-24T23:29:41;100956.72;;;8.76
48362;BMP280;34510;51.888;5.670;2023-04-24T23:34:44;100966.59;;;8.55
48362;BMP280;34510;51.888;5.670;2023-04-24T23:39:48;100984.94;;;8.71
48362;BMP280;34510;51.888;5.670;2023-04-24T23:44:49;100995.00;;;8.49
48362;BMP280;34510;51.888;5.670;2023-04-24T23:49:55;101002.16;;;8.58
48362;BMP280;34510;51.888;5.670;2023-04-24T23:54:57;101002.06;;;8.52
